createdAt,value
2022-11-30T00:01:15.283Z,14.63
2022-11-30T00:03:42.217Z,13.93
2022-11-30T00:06:14.604Z,14.20
2022-11-30T00:08:41.291Z,13.10
2022-11-30T00:11:17.891Z,13.20
2022-11-30T00:13:44.427Z,13.43
2022-11-30T00:16:10.940Z,13.77
2022-11-30T00:18:37.904Z,13.97
2022-11-30T00:21:06.424Z,14.20
2022-11-30T00:23:34.408Z,13.20
2022-11-30T00:26:02.518Z,13.63
2022-11-30T00:28:30.696Z,13.33
2022-11-30T00:31:01.620Z,13.63
2022-11-30T00:33:28.873Z,12.17
2022-11-30T00:36:00.148Z,12.20
2022-11-30T00:38:28.427Z,11.10
2022-11-30T00:40:56.522Z,12.03
2022-11-30T00:43:23.484Z,11.33
2022-11-30T00:45:50.134Z,10.80
2022-11-30T00:48:16.749Z,10.40
2022-11-30T00:50:43.275Z,9.93
2022-11-30T00:53:09.737Z,10.70
2022-11-30T00:55:36.243Z,10.17
2022-11-30T00:58:02.711Z,12.73
2022-11-30T01:00:29.379Z,13.67
2022-11-30T01:02:57.012Z,14.40
2022-11-30T01:05:23.446Z,13.80
2022-11-30T01:07:49.997Z,13.33
2022-11-30T01:10:17.065Z,13.83
2022-11-30T01:12:43.562Z,13.97
2022-11-30T01:15:10.722Z,12.83
2022-11-30T01:17:37.846Z,12.57
2022-11-30T01:20:06.347Z,13.07
2022-11-30T01:22:32.764Z,13.40
2022-11-30T01:24:59.653Z,12.53
2022-11-30T01:27:26.118Z,12.70
2022-11-30T01:29:52.599Z,13.47
2022-11-30T01:32:19.047Z,13.47
2022-11-30T01:34:45.911Z,14.17
2022-11-30T01:37:13.463Z,13.53
2022-11-30T01:39:40.037Z,14.13
2022-11-30T01:42:16.332Z,14.37
2022-11-30T01:44:55.115Z,13.60
2022-11-30T01:47:29.510Z,14.47
2022-11-30T01:50:11.249Z,12.90
2022-11-30T01:52:41.385Z,12.97
2022-11-30T01:55:18.417Z,13.87
2022-11-30T01:57:51.183Z,13.17
2022-11-30T02:00:18.763Z,13.30
2022-11-30T02:02:55.096Z,13.17
2022-11-30T02:05:22.004Z,14.80
2022-11-30T02:07:48.635Z,14.77
2022-11-30T02:10:17.893Z,15.80
2022-11-30T02:13:22.096Z,16.13
2022-11-30T02:16:10.521Z,12.57
2022-11-30T02:18:42.992Z,11.57
2022-11-30T02:21:18.499Z,10.20
2022-11-30T02:24:03.626Z,10.60
2022-11-30T02:27:01.154Z,11.13
2022-11-30T02:29:38.273Z,9.47
2022-11-30T02:32:16.980Z,11.03
2022-11-30T02:34:46.748Z,10.50
2022-11-30T02:37:14.745Z,10.37
2022-11-30T02:39:43.063Z,9.30
2022-11-30T02:42:14.237Z,9.80
2022-11-30T02:44:49.307Z,9.97
2022-11-30T02:47:36.569Z,9.70
2022-11-30T02:50:17.882Z,10.70
2022-11-30T02:52:45.324Z,11.77
2022-11-30T02:55:17.621Z,11.03
2022-11-30T02:57:44.164Z,11.00
2022-11-30T03:00:12.497Z,12.47
2022-11-30T03:02:40.130Z,11.10
2022-11-30T03:05:07.659Z,11.70
2022-11-30T03:07:34.217Z,11.53
2022-11-30T03:10:00.721Z,13.43
2022-11-30T03:12:27.488Z,12.27
2022-11-30T03:14:53.917Z,12.77
2022-11-30T03:17:20.361Z,12.03
2022-11-30T03:19:46.805Z,12.27
2022-11-30T03:22:13.267Z,11.53
2022-11-30T03:24:39.684Z,11.87
2022-11-30T03:27:06.196Z,12.10
2022-11-30T03:29:32.667Z,10.73
2022-11-30T03:31:59.116Z,10.97
2022-11-30T03:34:26.426Z,10.23
2022-11-30T03:36:53.236Z,10.50
2022-11-30T03:39:19.668Z,10.73
2022-11-30T03:41:46.076Z,10.03
2022-11-30T03:44:12.606Z,10.77
2022-11-30T03:46:39.293Z,9.80
2022-11-30T03:49:05.836Z,10.40
2022-11-30T03:51:32.279Z,10.13
2022-11-30T03:53:58.927Z,10.33
2022-11-30T03:56:25.658Z,10.20
2022-11-30T03:58:52.115Z,11.03
2022-11-30T04:01:23.895Z,9.93
2022-11-30T04:03:51.791Z,10.10
2022-11-30T04:06:19.460Z,10.20
2022-11-30T04:08:46.767Z,10.43
2022-11-30T04:11:13.440Z,10.23
2022-11-30T04:13:40.229Z,10.60
2022-11-30T04:16:07.509Z,10.70
2022-11-30T04:18:35.496Z,10.97
2022-11-30T04:21:02.058Z,12.07
2022-11-30T04:23:34.708Z,11.27
2022-11-30T04:26:04.114Z,11.13
2022-11-30T04:28:30.699Z,12.10
2022-11-30T04:30:57.384Z,11.43
2022-11-30T04:33:23.866Z,10.70
2022-11-30T04:35:54.111Z,10.60
2022-11-30T04:38:20.581Z,10.63
2022-11-30T04:40:46.994Z,9.43
2022-11-30T04:43:14.003Z,10.10
2022-11-30T04:45:41.115Z,10.23
2022-11-30T04:48:07.722Z,9.67
2022-11-30T04:50:34.737Z,10.27
2022-11-30T04:53:01.284Z,10.30
2022-11-30T04:55:27.861Z,11.23
2022-11-30T04:57:54.381Z,11.10
2022-11-30T05:00:21.092Z,12.13
2022-11-30T05:02:52.745Z,13.43
2022-11-30T05:05:20.318Z,14.47
2022-11-30T05:07:57.095Z,12.73
2022-11-30T05:10:25.390Z,12.67
2022-11-30T05:12:52.306Z,13.47
2022-11-30T05:15:19.282Z,14.97
2022-11-30T05:17:45.742Z,13.93
2022-11-30T05:20:12.194Z,13.60
2022-11-30T05:22:38.664Z,13.17
2022-11-30T05:25:05.496Z,15.10
2022-11-30T05:27:31.914Z,14.20
2022-11-30T05:29:58.940Z,12.97
2022-11-30T05:32:25.512Z,14.30
2022-11-30T05:34:52.288Z,14.33
2022-11-30T05:37:19.777Z,14.67
2022-11-30T05:39:46.439Z,13.37
2022-11-30T05:42:12.865Z,13.43
2022-11-30T05:44:39.317Z,12.13
2022-11-30T05:47:05.946Z,11.67
2022-11-30T05:49:32.368Z,11.90
2022-11-30T05:51:58.882Z,11.73
2022-11-30T05:54:25.277Z,13.10
2022-11-30T05:56:54.899Z,11.93
2022-11-30T05:59:22.521Z,12.87
2022-11-30T06:01:49.181Z,14.37
2022-11-30T06:04:15.714Z,13.77
2022-11-30T06:06:42.180Z,13.20
2022-11-30T06:09:08.615Z,13.37
2022-11-30T06:11:35.009Z,14.13
2022-11-30T06:14:01.594Z,14.43
2022-11-30T06:16:28.246Z,13.97
2022-11-30T06:18:54.748Z,15.17
2022-11-30T06:21:24.379Z,15.40
2022-11-30T06:23:51.733Z,14.43
2022-11-30T06:26:18.215Z,15.73
2022-11-30T06:28:48.273Z,14.93
2022-11-30T06:31:15.747Z,14.90
2022-11-30T06:33:42.362Z,14.60
2022-11-30T06:36:09.364Z,15.30
2022-11-30T06:38:35.774Z,14.77
2022-11-30T06:41:07.722Z,14.97
2022-11-30T06:43:39.013Z,15.30
2022-11-30T06:46:07.105Z,15.70
2022-11-30T06:48:34.746Z,15.03
2022-11-30T06:51:01.887Z,16.33
2022-11-30T06:53:28.333Z,14.30
2022-11-30T06:55:54.783Z,16.43
2022-11-30T06:58:21.807Z,16.43
2022-11-30T07:00:48.484Z,17.00
2022-11-30T07:03:15.174Z,16.33
2022-11-30T07:05:46.192Z,14.60
2022-11-30T07:08:15.370Z,14.13
2022-11-30T07:10:46.816Z,13.93
2022-11-30T07:13:16.085Z,13.70
2022-11-30T07:15:43.299Z,13.47
2022-11-30T07:18:10.108Z,13.33
2022-11-30T07:20:38.843Z,13.67
2022-11-30T07:23:24.896Z,14.77
2022-11-30T07:26:09.168Z,14.03
2022-11-30T07:28:37.820Z,14.00
2022-11-30T07:31:16.638Z,14.47
2022-11-30T07:33:43.806Z,15.03
2022-11-30T07:36:10.956Z,14.63
2022-11-30T07:38:38.408Z,16.30
2022-11-30T07:41:05.285Z,16.00
2022-11-30T07:43:32.968Z,15.73
2022-11-30T07:46:00.591Z,15.97
2022-11-30T07:48:27.702Z,16.67
2022-11-30T07:50:54.621Z,17.03
2022-11-30T07:53:21.146Z,17.47
2022-11-30T07:55:50.520Z,17.53
2022-11-30T07:58:19.231Z,18.03
2022-11-30T08:00:45.743Z,18.47
2022-11-30T08:03:12.363Z,17.73
2022-11-30T08:05:38.845Z,17.63
2022-11-30T08:08:05.297Z,16.73
2022-11-30T08:10:31.843Z,16.47
2022-11-30T08:12:58.334Z,17.80
2022-11-30T08:15:31.892Z,18.33
2022-11-30T08:18:05.089Z,16.10
2022-11-30T08:20:31.762Z,16.63
2022-11-30T08:22:58.719Z,16.77
2022-11-30T08:25:25.143Z,16.57
2022-11-30T08:27:51.569Z,16.23
2022-11-30T08:30:18.004Z,16.37
2022-11-30T08:32:44.561Z,15.87
2022-11-30T08:35:10.969Z,16.07
2022-11-30T08:37:37.889Z,16.30
2022-11-30T08:40:05.987Z,15.20
2022-11-30T08:42:32.482Z,13.30
2022-11-30T08:44:59.104Z,14.93
2022-11-30T08:47:25.787Z,13.60
2022-11-30T08:49:52.672Z,15.07
2022-11-30T08:52:19.368Z,14.13
2022-11-30T08:54:47.921Z,14.53
2022-11-30T08:57:17.547Z,14.33
2022-11-30T08:59:44.092Z,14.80
2022-11-30T09:02:13.325Z,13.87
2022-11-30T09:04:39.806Z,14.17
2022-11-30T09:07:06.343Z,13.93
2022-11-30T09:09:32.819Z,13.87
2022-11-30T09:11:59.300Z,13.93
2022-11-30T09:14:25.820Z,11.80
2022-11-30T09:16:54.082Z,12.80
2022-11-30T09:19:21.537Z,12.37
2022-11-30T09:21:52.024Z,12.77
2022-11-30T09:24:19.761Z,12.90
2022-11-30T09:26:46.260Z,12.77
2022-11-30T09:29:12.824Z,14.07
2022-11-30T09:31:39.309Z,14.10
2022-11-30T09:34:05.764Z,13.33
2022-11-30T09:36:33.843Z,13.40
2022-11-30T09:39:00.272Z,13.03
2022-11-30T09:41:50.813Z,11.53
2022-11-30T09:44:50.613Z,11.07
2022-11-30T09:47:35.819Z,11.87
2022-11-30T09:50:10.445Z,11.23
2022-11-30T09:52:42.891Z,12.93
2022-11-30T09:55:13.558Z,12.13
2022-11-30T09:57:45.005Z,11.33
2022-11-30T10:00:18.979Z,11.07
2022-11-30T10:02:45.782Z,11.43
2022-11-30T10:05:16.212Z,11.23
2022-11-30T10:08:17.810Z,10.43
2022-11-30T10:11:03.199Z,10.93
2022-11-30T10:13:41.532Z,10.93
2022-11-30T10:16:24.652Z,10.23
2022-11-30T10:19:06.095Z,11.00
2022-11-30T10:21:54.965Z,10.63
2022-11-30T10:24:33.441Z,11.63
2022-11-30T10:27:06.659Z,11.80
2022-11-30T10:29:41.552Z,11.03
2022-11-30T10:32:22.012Z,11.60
2022-11-30T10:34:53.138Z,10.60
2022-11-30T10:37:27.099Z,10.73
2022-11-30T10:40:13.422Z,11.00
2022-11-30T10:42:50.079Z,9.77
2022-11-30T10:45:21.177Z,9.83
2022-11-30T10:48:07.745Z,11.73
2022-11-30T10:50:34.496Z,12.33
2022-11-30T10:53:01.633Z,11.77
2022-11-30T10:55:31.459Z,11.97
2022-11-30T10:58:26.403Z,12.33
2022-11-30T11:01:21.553Z,12.03
2022-11-30T11:03:48.400Z,11.87
2022-11-30T11:06:23.304Z,13.73
2022-11-30T11:08:51.147Z,11.97
2022-11-30T11:11:30.438Z,12.53
2022-11-30T11:14:18.107Z,11.90
2022-11-30T11:16:54.892Z,13.03
2022-11-30T11:19:46.501Z,12.70
2022-11-30T11:22:13.048Z,13.00
2022-11-30T11:24:39.704Z,12.43
2022-11-30T11:27:06.313Z,11.63
2022-11-30T11:29:35.090Z,13.03
2022-11-30T11:32:18.011Z,12.67
2022-11-30T11:34:50.708Z,12.10
2022-11-30T11:37:33.606Z,13.33
2022-11-30T11:40:16.324Z,13.43
2022-11-30T11:42:47.767Z,12.57
2022-11-30T11:45:17.964Z,13.63
2022-11-30T11:47:45.776Z,13.00
2022-11-30T11:50:12.271Z,12.50
2022-11-30T11:52:38.924Z,11.77
2022-11-30T11:55:13.691Z,13.07
2022-11-30T11:58:02.380Z,12.60
2022-11-30T12:00:29.016Z,12.20
2022-11-30T12:03:13.977Z,12.87
2022-11-30T12:05:44.434Z,11.70
2022-11-30T12:08:19.256Z,11.33
2022-11-30T12:10:55.597Z,11.17
2022-11-30T12:13:27.231Z,10.20
2022-11-30T12:16:17.091Z,10.07
2022-11-30T12:18:52.036Z,10.83
2022-11-30T12:21:21.534Z,10.50
2022-11-30T12:24:13.224Z,10.80
2022-11-30T12:26:48.355Z,10.90
2022-11-30T12:29:25.125Z,11.70
2022-11-30T12:32:02.925Z,10.50
2022-11-30T12:34:49.326Z,10.43
2022-11-30T12:37:28.131Z,11.67
2022-11-30T12:40:32.971Z,11.47
2022-11-30T12:43:25.530Z,11.93
2022-11-30T12:46:03.742Z,12.37
2022-11-30T12:49:05.634Z,12.80
2022-11-30T12:51:58.880Z,12.30
2022-11-30T12:54:48.266Z,12.27
2022-11-30T12:57:19.565Z,12.87
2022-11-30T13:00:02.361Z,13.00
2022-11-30T13:02:39.639Z,14.93
2022-11-30T13:05:14.001Z,14.07
2022-11-30T13:07:51.444Z,14.60
2022-11-30T13:10:44.224Z,13.63
2022-11-30T13:13:18.313Z,14.20
2022-11-30T13:15:45.034Z,14.30
2022-11-30T13:18:17.755Z,13.97
2022-11-30T13:21:06.936Z,13.73
2022-11-30T13:24:04.313Z,13.30
2022-11-30T13:26:39.027Z,12.77
2022-11-30T13:29:22.745Z,13.40
2022-11-30T13:32:04.345Z,13.23
2022-11-30T13:34:32.843Z,11.27
2022-11-30T13:37:02.303Z,10.77
2022-11-30T13:39:33.953Z,11.33
2022-11-30T13:42:00.433Z,10.90
2022-11-30T13:44:33.641Z,10.47
2022-11-30T13:47:34.523Z,10.80
2022-11-30T13:50:07.894Z,9.97
2022-11-30T13:53:02.385Z,9.13
2022-11-30T13:56:05.276Z,10.07
2022-11-30T13:58:32.420Z,10.30
2022-11-30T14:01:21.039Z,9.93
2022-11-30T14:04:15.899Z,9.20
2022-11-30T14:06:42.314Z,9.27
2022-11-30T14:09:41.287Z,10.37
2022-11-30T14:12:37.147Z,9.77
2022-11-30T14:15:31.663Z,10.17
2022-11-30T14:17:59.008Z,9.07
2022-11-30T14:20:37.522Z,10.43
2022-11-30T14:23:13.102Z,10.17
2022-11-30T14:25:46.914Z,9.47
2022-11-30T14:28:17.567Z,9.30
2022-11-30T14:30:44.252Z,10.07
2022-11-30T14:33:39.506Z,9.43
2022-11-30T14:36:07.625Z,9.30
2022-11-30T14:38:41.059Z,8.80
2022-11-30T14:41:19.394Z,9.37
2022-11-30T14:44:06.945Z,8.97
2022-11-30T14:46:34.983Z,8.83
2022-11-30T14:49:14.581Z,8.20
2022-11-30T14:51:44.677Z,9.43
2022-11-30T14:54:36.498Z,9.27
2022-11-30T14:57:13.394Z,8.43
2022-11-30T14:59:53.112Z,8.23
2022-11-30T15:02:26.374Z,7.90
2022-11-30T15:04:55.567Z,8.43
2022-11-30T15:07:23.589Z,8.80
2022-11-30T15:09:56.640Z,9.27
2022-11-30T15:12:24.784Z,9.83
2022-11-30T15:15:17.015Z,10.07
2022-11-30T15:17:58.559Z,9.30
2022-11-30T15:20:29.755Z,8.83
2022-11-30T15:23:00.375Z,9.43
2022-11-30T15:25:58.322Z,9.80
2022-11-30T15:28:33.972Z,8.57
2022-11-30T15:31:05.271Z,8.10
2022-11-30T15:33:40.553Z,7.33
2022-11-30T15:36:28.237Z,6.93
2022-11-30T15:38:54.309Z,7.20
2022-11-30T15:41:23.836Z,6.80
2022-11-30T15:43:56.411Z,6.40
2022-11-30T15:46:41.208Z,6.17
2022-11-30T15:49:10.830Z,6.87
2022-11-30T15:51:39.627Z,6.27
2022-11-30T15:54:06.113Z,6.23
2022-11-30T15:56:32.639Z,6.63
2022-11-30T15:59:07.791Z,6.67
2022-11-30T16:02:02.721Z,6.40
2022-11-30T16:04:58.168Z,7.43
2022-11-30T16:07:28.356Z,6.90
2022-11-30T16:10:15.194Z,6.40
2022-11-30T16:12:43.778Z,6.63
2022-11-30T16:15:20.134Z,6.13
2022-11-30T16:17:46.630Z,6.43
2022-11-30T16:20:14.034Z,5.93
2022-11-30T16:22:46.208Z,7.27
2022-11-30T16:25:18.149Z,7.57
2022-11-30T16:27:44.705Z,7.77
2022-11-30T16:30:16.719Z,8.83
2022-11-30T16:32:43.517Z,9.17
2022-11-30T16:35:26.120Z,9.77
2022-11-30T16:37:53.420Z,9.57
2022-11-30T16:40:21.024Z,9.73
2022-11-30T16:42:49.567Z,9.77
2022-11-30T16:45:21.314Z,9.77
2022-11-30T16:47:48.198Z,9.80
2022-11-30T16:50:15.102Z,10.37
2022-11-30T16:52:42.669Z,12.50
2022-11-30T16:55:21.648Z,12.10
2022-11-30T16:57:49.303Z,12.60
2022-11-30T17:00:19.106Z,12.20
2022-11-30T17:03:02.408Z,13.40
2022-11-30T17:05:28.909Z,14.07
2022-11-30T17:07:55.447Z,13.30
2022-11-30T17:10:22.484Z,13.20
2022-11-30T17:12:49.171Z,13.50
2022-11-30T17:15:19.007Z,13.43
2022-11-30T17:17:45.547Z,13.70
2022-11-30T17:20:14.203Z,14.33
2022-11-30T17:22:41.548Z,13.03
2022-11-30T17:25:13.283Z,13.17
2022-11-30T17:27:39.854Z,13.37
2022-11-30T17:30:07.054Z,13.60
2022-11-30T17:32:33.758Z,14.57
2022-11-30T17:35:00.224Z,14.10
2022-11-30T17:37:26.781Z,14.70
2022-11-30T17:39:53.206Z,15.40
2022-11-30T17:42:19.693Z,16.80
2022-11-30T17:44:46.570Z,15.77
2022-11-30T17:47:13.329Z,16.00
2022-11-30T17:49:40.354Z,16.83
2022-11-30T17:52:06.799Z,16.23
2022-11-30T17:54:33.200Z,16.40
2022-11-30T17:56:59.726Z,15.40
2022-11-30T17:59:26.137Z,15.93
2022-11-30T18:01:52.607Z,15.67
2022-11-30T18:04:19.106Z,15.83
2022-11-30T18:06:45.500Z,15.50
2022-11-30T18:09:12.357Z,16.13
2022-11-30T18:11:38.946Z,15.23
2022-11-30T18:14:05.397Z,15.47
2022-11-30T18:16:34.311Z,16.13
2022-11-30T18:19:00.763Z,16.87
2022-11-30T18:21:29.605Z,16.20
2022-11-30T18:23:57.792Z,15.67
2022-11-30T18:26:26.030Z,16.77
2022-11-30T18:28:54.612Z,15.73
2022-11-30T18:31:21.890Z,16.80
2022-11-30T18:33:48.528Z,16.23
2022-11-30T18:36:15.069Z,16.47
2022-11-30T18:38:41.662Z,17.30
2022-11-30T18:41:08.064Z,15.17
2022-11-30T18:43:35.140Z,16.23
2022-11-30T18:46:03.823Z,15.20
2022-11-30T18:48:30.398Z,15.70
2022-11-30T18:50:56.887Z,16.13
2022-11-30T18:53:23.894Z,16.87
2022-11-30T18:55:50.770Z,17.03
2022-11-30T18:58:17.461Z,16.30
2022-11-30T19:00:43.898Z,16.77
2022-11-30T19:03:10.603Z,17.70
2022-11-30T19:05:38.321Z,17.60
2022-11-30T19:08:07.818Z,16.90
2022-11-30T19:10:36.154Z,16.03
2022-11-30T19:13:04.142Z,15.53
2022-11-30T19:15:36.155Z,16.10
2022-11-30T19:18:02.645Z,16.40
2022-11-30T19:20:29.023Z,15.60
2022-11-30T19:22:55.476Z,15.17
2022-11-30T19:25:21.896Z,15.83
2022-11-30T19:27:48.307Z,15.50
2022-11-30T19:30:15.277Z,16.23
2022-11-30T19:32:41.716Z,14.70
2022-11-30T19:35:08.277Z,16.13
2022-11-30T19:37:34.770Z,15.57
2022-11-30T19:40:01.292Z,16.07
2022-11-30T19:42:29.884Z,15.83
2022-11-30T19:44:56.327Z,16.23
2022-11-30T19:47:22.785Z,16.43
2022-11-30T19:49:49.188Z,16.13
2022-11-30T19:52:15.615Z,17.10
2022-11-30T19:54:42.115Z,18.00
2022-11-30T19:57:08.569Z,18.00
2022-11-30T19:59:35.086Z,16.90
2022-11-30T20:02:01.916Z,17.27
2022-11-30T20:04:28.393Z,17.43
2022-11-30T20:06:54.910Z,16.10
2022-11-30T20:09:21.459Z,13.20
2022-11-30T20:11:47.852Z,14.03
2022-11-30T20:14:17.591Z,15.97
2022-11-30T20:16:44.154Z,13.60
2022-11-30T20:19:10.812Z,16.20
2022-11-30T20:21:37.367Z,14.67
2022-11-30T20:24:07.112Z,15.53
2022-11-30T20:26:39.591Z,14.80
2022-11-30T20:29:08.472Z,15.33
2022-11-30T20:31:36.447Z,15.10
2022-11-30T20:34:03.591Z,14.40
2022-11-30T20:36:30.420Z,14.77
2022-11-30T20:38:58.300Z,14.70
2022-11-30T20:41:25.449Z,13.60
2022-11-30T20:43:52.376Z,14.80
2022-11-30T20:46:21.879Z,13.90
2022-11-30T20:48:48.612Z,14.27
2022-11-30T20:51:36.631Z,15.07
2022-11-30T20:54:07.103Z,14.83
2022-11-30T20:56:37.502Z,13.40
2022-11-30T20:59:06.379Z,13.27
2022-11-30T21:01:33.643Z,12.53
2022-11-30T21:04:00.788Z,13.33
2022-11-30T21:06:29.137Z,13.30
2022-11-30T21:08:55.800Z,13.13
2022-11-30T21:11:22.583Z,12.50
2022-11-30T21:13:50.065Z,13.10
2022-11-30T21:16:24.007Z,12.13
2022-11-30T21:18:52.240Z,11.53
2022-11-30T21:21:21.239Z,11.17
2022-11-30T21:23:49.237Z,11.60
2022-11-30T21:26:18.506Z,11.07
2022-11-30T21:28:46.119Z,11.40
2022-11-30T21:31:13.000Z,11.60
2022-11-30T21:33:39.686Z,11.77
2022-11-30T21:36:07.673Z,11.37
2022-11-30T21:38:34.573Z,10.83
2022-11-30T21:41:01.857Z,11.03
2022-11-30T21:43:29.827Z,10.50
2022-11-30T21:46:17.491Z,11.73
2022-11-30T21:48:46.074Z,11.90
2022-11-30T21:51:15.596Z,12.10
2022-11-30T21:53:47.572Z,12.27
2022-11-30T21:56:20.408Z,13.17
2022-11-30T21:58:48.091Z,12.60
2022-11-30T22:01:19.547Z,13.10
2022-11-30T22:03:46.349Z,12.83
2022-11-30T22:06:15.567Z,13.10
2022-11-30T22:08:42.921Z,12.93
2022-11-30T22:11:21.469Z,13.67
2022-11-30T22:13:53.445Z,13.40
2022-11-30T22:16:21.160Z,12.00
2022-11-30T22:18:48.064Z,12.43
2022-11-30T22:21:19.981Z,12.07
2022-11-30T22:23:51.632Z,11.80
2022-11-30T22:26:22.262Z,12.53
2022-11-30T22:28:54.377Z,12.47
2022-11-30T22:31:23.462Z,12.23
2022-11-30T22:33:50.068Z,13.10
2022-11-30T22:36:25.827Z,12.33
2022-11-30T22:38:56.966Z,12.50
2022-11-30T22:41:23.721Z,12.57
2022-11-30T22:43:50.249Z,11.07
2022-11-30T22:46:19.621Z,12.13
2022-11-30T22:48:46.933Z,10.80
2022-11-30T22:51:15.959Z,11.80
2022-11-30T22:53:42.663Z,11.07
2022-11-30T22:56:15.479Z,11.47
2022-11-30T22:58:43.595Z,10.90
2022-11-30T23:01:13.064Z,10.67
2022-11-30T23:03:40.976Z,11.40
2022-11-30T23:06:08.451Z,10.60
2022-11-30T23:08:37.511Z,11.20
2022-11-30T23:11:09.797Z,10.33
2022-11-30T23:13:36.687Z,10.13
2022-11-30T23:16:04.771Z,10.97
2022-11-30T23:18:40.679Z,10.30
2022-11-30T23:21:11.037Z,9.80
2022-11-30T23:23:37.488Z,10.03
2022-11-30T23:26:15.645Z,10.50
2022-11-30T23:28:44.063Z,9.03
2022-11-30T23:31:32.179Z,10.03
2022-11-30T23:34:02.763Z,10.33
2022-11-30T23:36:29.183Z,9.03
2022-11-30T23:39:06.948Z,9.73
2022-11-30T23:41:33.524Z,9.13
2022-11-30T23:44:00.031Z,9.43
2022-11-30T23:46:26.595Z,9.47
2022-11-30T23:48:53.164Z,9.70
2022-11-30T23:51:19.604Z,8.97
2022-11-30T23:53:46.383Z,8.53
2022-11-30T23:56:15.581Z,8.67
2022-11-30T23:58:42.444Z,8.87
